πŸ“Š DonnΓ©es MΓ©tΓ©o - Bordeaux

Total mesures

14,383

TempΓ©rature moyenne

18.9Β°C

Temp. Min/Max

2.9Β° / 42.4Β°

HumiditΓ© moyenne

64.8%

Pression moyenne

1014.7 hPa
enregistrements
ID Date/Heure Temp (Β°C) HumiditΓ© (%) Pression (hPa) Tendance LuminositΓ© (lux) Situation
12283 01/08/2026 14:45 31.0 38.0 1,013.6 β†’ Stable 86,112 chaleur-seche
12282 01/08/2026 14:15 30.8 38.0 1,013.6 β†’ Stable 92,964 chaleur-seche
12281 01/08/2026 13:45 30.6 39.0 1,014.2 β†’ Stable 98,328 chaleur-seche
12280 01/08/2026 13:15 30.5 39.0 1,014.2 β†’ Stable 101,208 chaleur-seche
12279 01/08/2026 12:45 29.8 41.0 1,015.0 β†’ Stable 103,524 confortablement-chaud (approx.)
12278 01/08/2026 12:15 29.1 44.0 1,015.0 β†’ Stable 102,684 confortablement-chaud (approx.)
12277 01/08/2026 11:45 28.5 46.0 1,015.8 β†’ Stable 101,580 confortablement-chaud
12276 01/08/2026 11:15 27.5 51.0 1,015.8 β†’ Stable 90,000 confortablement-chaud
12275 01/08/2026 10:45 26.7 54.0 1,016.4 β†’ Stable 85,920 confortablement-chaud
12274 01/08/2026 10:15 26.2 51.0 1,016.4 β†’ Stable 92,688 confortablement-chaud
12273 01/08/2026 09:45 25.2 54.0 1,016.6 β†’ Stable 86,760 confortablement-chaud
12272 01/08/2026 09:15 24.0 58.0 1,016.6 β†’ Stable 77,496 confortablement-chaud
12271 01/08/2026 08:45 23.2 61.0 1,016.8 β†’ Stable 69,540 conditions-neutrales-ou-non-definies
12270 01/08/2026 08:15 22.2 66.0 1,016.8 β†’ Stable 55,836 frais-stable
12269 01/08/2026 07:45 21.3 71.0 1,016.5 β†’ Stable 46,668 pluvieux-gris (approx.)
12268 01/08/2026 07:15 19.9 75.0 1,016.5 β†’ Stable 34,080 pluvieux-gris (approx.)
12267 01/08/2026 06:45 19.1 79.0 1,016.2 β†’ Stable 25,644 pluvieux-gris (approx.)
12266 01/08/2026 06:15 17.7 83.0 1,016.2 β†’ Stable 15,096 pluvieux-gris (approx.)
12265 01/08/2026 06:00 17.3 85.0 1,016.2 β†’ Stable 11,580 pluvieux-gris (approx.)
12264 01/08/2026 05:45 17.0 87.0 1,016.2 β†’ Stable 8,616 pluvieux-gris (approx.)
12263 01/08/2026 05:15 16.6 87.0 1,016.2 β†’ Stable 552 pluvieux-gris (approx.)
12262 01/08/2026 04:45 16.7 86.0 1,016.3 β†’ Stable 0 pluvieux-gris (approx.)
12261 01/08/2026 04:15 16.9 86.0 1,016.3 β†’ Stable 0 pluvieux-gris (approx.)
12260 01/08/2026 03:45 17.1 86.0 1,016.4 β†’ Stable 0 pluvieux-gris (approx.)
12259 01/08/2026 03:15 17.5 84.0 1,016.4 β†’ Stable 0 pluvieux-gris (approx.)
12258 01/08/2026 02:45 17.7 83.0 1,016.4 β†’ Stable 0 pluvieux-gris (approx.)
12257 01/08/2026 02:15 17.7 85.0 1,016.4 β†’ Stable 0 pluvieux-gris (approx.)
12256 01/08/2026 01:45 17.9 84.0 1,016.8 β†’ Stable 0 pluvieux-gris (approx.)
12255 01/08/2026 01:15 18.2 85.0 1,016.8 β†’ Stable 0 pluvieux-gris (approx.)
12254 01/08/2026 00:45 18.4 84.0 1,017.4 β†’ Stable 0 pluvieux-gris (approx.)
12253 01/08/2026 00:15 18.7 84.0 1,017.4 β†’ Stable 0 pluvieux-gris (approx.)
12252 31/07/2026 23:45 18.9 84.0 1,017.7 β†’ Stable 0 pluvieux-gris (approx.)
12251 31/07/2026 23:15 19.4 81.0 1,017.7 β†’ Stable 0 pluvieux-gris (approx.)
12250 31/07/2026 22:45 19.5 82.0 1,017.8 β†’ Stable 0 pluvieux-gris (approx.)
12249 31/07/2026 22:15 19.9 78.0 1,017.8 β†’ Stable 0 pluvieux-gris (approx.)
12248 31/07/2026 21:45 20.1 78.0 1,017.4 β†’ Stable 0 pluvieux-gris (approx.)
12247 31/07/2026 21:15 20.4 77.0 1,017.4 β†’ Stable 0 pluvieux-gris (approx.)
12246 31/07/2026 20:45 20.7 75.0 1,016.9 β†’ Stable 0 pluvieux-gris (approx.)
12245 31/07/2026 20:15 21.4 73.0 1,016.9 β†’ Stable 0 pluvieux-gris (approx.)
12244 31/07/2026 19:45 21.9 70.0 1,016.4 β†’ Stable 0 pluvieux-gris (approx.)
12243 31/07/2026 19:15 22.6 66.0 1,016.4 β†’ Stable 3,612 frais-stable
12242 31/07/2026 18:45 23.4 64.0 1,015.8 β†’ Stable 10,644 conditions-neutrales-ou-non-definies
12241 31/07/2026 18:15 24.4 59.0 1,015.8 β†’ Stable 20,928 confortablement-chaud (approx.)
12240 31/07/2026 17:45 25.1 57.0 1,015.7 β†’ Stable 30,276 confortablement-chaud (approx.)
12239 31/07/2026 17:15 25.9 55.0 1,015.7 β†’ Stable 41,292 confortablement-chaud (approx.)
12238 31/07/2026 16:45 26.6 51.0 1,015.6 β†’ Stable 50,736 confortablement-chaud (approx.)
12237 31/07/2026 16:15 26.7 49.0 1,015.6 β†’ Stable 43,884 confortablement-chaud (approx.)
12236 31/07/2026 15:45 26.8 49.0 1,015.0 β†’ Stable 45,552 confortablement-chaud (approx.)
12235 31/07/2026 15:15 26.8 50.0 1,015.0 β†’ Stable 43,236 confortablement-chaud (approx.)
12234 31/07/2026 14:45 27.0 50.0 1,014.9 β†’ Stable 44,448 confortablement-chaud (approx.)
12233 31/07/2026 14:15 26.6 51.0 1,014.9 β†’ Stable 42,684 confortablement-chaud (approx.)
12232 31/07/2026 13:45 26.9 51.0 1,015.3 β†’ Stable 46,572 confortablement-chaud (approx.)
12231 31/07/2026 13:15 26.4 53.0 1,015.4 β†’ Stable 49,260 confortablement-chaud (approx.)
12230 31/07/2026 12:45 26.3 53.0 1,015.8 β†’ Stable 48,060 confortablement-chaud (approx.)
12229 31/07/2026 12:15 25.9 54.0 1,015.8 β†’ Stable 31,572 confortablement-chaud (approx.)
12228 31/07/2026 11:45 26.2 53.0 1,015.8 β†’ Stable 28,428 confortablement-chaud (approx.)
12227 31/07/2026 11:15 26.1 54.0 1,015.8 β†’ Stable 52,032 confortablement-chaud (approx.)
12226 31/07/2026 10:45 26.3 53.0 1,016.1 β†’ Stable 55,368 confortablement-chaud (approx.)
12225 31/07/2026 10:15 26.2 52.0 1,016.1 β†’ Stable 73,236 confortablement-chaud
12224 31/07/2026 09:45 25.9 54.0 1,015.9 β†’ Stable 77,868 confortablement-chaud
12223 31/07/2026 09:15 25.1 57.0 1,015.9 β†’ Stable 74,532 confortablement-chaud
12222 31/07/2026 08:45 24.1 62.0 1,015.9 β†’ Stable 68,244 confortablement-chaud (approx.)
12221 31/07/2026 08:15 23.2 68.0 1,015.9 β†’ Stable 51,300 conditions-neutrales-ou-non-definies
12220 31/07/2026 07:45 22.2 74.0 1,016.3 β†’ Stable 42,132 pluvieux-gris (approx.)
12219 31/07/2026 07:15 21.1 80.0 1,016.3 β†’ Stable 20,088 pluvieux-gris (approx.)
12218 31/07/2026 06:45 20.5 84.0 1,016.3 β†’ Stable 12,684 pluvieux-gris (approx.)
12217 31/07/2026 06:15 20.1 83.0 1,016.3 β†’ Stable 14,904 pluvieux-gris (approx.)
12216 31/07/2026 05:45 19.7 86.0 1,015.8 β†’ Stable 8,328 pluvieux-gris (approx.)
12215 31/07/2026 05:15 19.6 86.0 1,015.8 β†’ Stable 552 pluvieux-gris (approx.)
12214 31/07/2026 04:45 19.5 86.0 1,015.8 β†’ Stable 0 pluvieux-gris (approx.)
12213 31/07/2026 04:15 19.4 85.0 1,015.8 β†’ Stable 0 pluvieux-gris (approx.)
12212 31/07/2026 03:45 19.4 85.0 1,015.9 β†’ Stable 0 pluvieux-gris (approx.)
12211 31/07/2026 03:15 19.6 85.0 1,015.9 β†’ Stable 0 pluvieux-gris (approx.)
12210 31/07/2026 02:45 19.5 85.0 1,015.6 β†’ Stable 0 pluvieux-gris (approx.)
12209 31/07/2026 02:15 19.7 81.0 1,015.6 β†’ Stable 0 pluvieux-gris (approx.)
12208 31/07/2026 01:45 19.7 79.0 1,016.4 β†’ Stable 0 pluvieux-gris (approx.)
12207 31/07/2026 01:15 19.9 76.0 1,015.8 β†’ Stable 0 pluvieux-gris (approx.)
12206 31/07/2026 00:45 20.0 76.0 1,016.0 β†’ Stable 0 pluvieux-gris (approx.)
12205 31/07/2026 00:15 20.4 77.0 1,016.0 β†’ Stable 0 pluvieux-gris (approx.)
12204 30/07/2026 23:45 20.8 75.0 1,016.0 β†’ Stable 0 pluvieux-gris (approx.)
12203 30/07/2026 23:15 21.8 73.0 1,016.0 β†’ Stable 0 pluvieux-gris (approx.)
12202 30/07/2026 22:45 22.0 74.0 1,016.7 β†’ Stable 0 pluvieux-gris (approx.)
12201 30/07/2026 22:15 22.2 75.0 1,016.7 β†’ Stable 0 pluvieux-gris (approx.)
12200 30/07/2026 21:45 22.6 74.0 1,015.8 β†’ Stable 0 pluvieux-gris (approx.)
12199 30/07/2026 21:15 23.2 72.0 1,015.8 β†’ Stable 0 pluvieux-gris (approx.)
12198 30/07/2026 20:45 23.5 70.0 1,015.2 β†’ Stable 0 pluvieux-gris (approx.)
12197 30/07/2026 20:15 24.4 64.0 1,015.2 β†’ Stable 0 confortablement-chaud (approx.)
12196 30/07/2026 19:45 25.1 62.0 1,014.8 β†’ Stable 0 confortablement-chaud (approx.)
12195 30/07/2026 19:15 26.1 59.0 1,014.8 β†’ Stable 3,792 confortablement-chaud (approx.)
12194 30/07/2026 18:45 26.8 58.0 1,014.5 β†’ Stable 10,644 confortablement-chaud (approx.)
12193 30/07/2026 18:15 27.9 53.0 1,014.5 β†’ Stable 20,832 confortablement-chaud (approx.)
12192 30/07/2026 17:45 28.9 51.0 1,014.4 β†’ Stable 30,000 confortablement-chaud (approx.)
12191 30/07/2026 17:15 30.0 47.0 1,014.4 β†’ Stable 42,036 conditions-neutrales-ou-non-definies
12190 30/07/2026 16:45 30.9 45.0 1,014.4 β†’ Stable 52,128 conditions-neutrales-ou-non-definies
12189 30/07/2026 16:15 31.5 44.0 1,014.4 β†’ Stable 62,964 conditions-neutrales-ou-non-definies
12188 30/07/2026 15:45 32.2 41.0 1,014.2 β†’ Stable 71,760 confortablement-chaud (approx.)
12187 30/07/2026 15:15 32.6 39.0 1,014.2 β†’ Stable 81,024 chaleur-seche
12186 30/07/2026 14:45 32.6 40.0 1,014.7 β†’ Stable 88,152 confortablement-chaud (approx.)
12185 30/07/2026 14:15 33.2 39.0 1,014.7 β†’ Stable 94,164 chaleur-seche
12184 30/07/2026 13:45 32.8 40.0 1,015.4 β†’ Stable 98,700 confortablement-chaud (approx.)